Time;durP1;ratioP1;P1;durP2;ratioP2;P2;SDS_P1;SDS_P2;PMS_P1;PMS_P2;Temp;Humidity;BMP_temperature;BMP_pressure;BME280_temperature;BME280_humidity;BME280_pressure;Samples;Min_cycle;Max_cycle;Signal;HPM_P1;HPM_P2
2022/06/28 19:14:03;;;;;;;7.03;6.40;;;;;;;17.69;100.00;63832.03;5050694;22;1293638;-76
2022/06/28 19:16:30;;;;;;;6.55;6.05;;;;;;;17.65;100.00;63829.94;5027672;28;20197;-74
2022/06/28 19:18:59;;;;;;;6.65;6.15;;;;;;;17.62;100.00;63816.50;5005261;28;20338;-74
2022/06/28 19:21:26;;;;;;;8.30;7.55;;;;;;;17.66;100.00;63826.34;5011377;28;20198;-74
2022/06/28 19:23:54;;;;;;;6.63;6.13;;;;;;;17.70;100.00;63835.66;5004311;28;20222;-73
2022/06/28 19:26:21;;;;;;;6.63;6.13;;;;;;;17.64;100.00;63823.72;4986328;28;20205;-76
2022/06/28 19:28:48;;;;;;;7.03;6.57;;;;;;;17.53;100.00;63807.13;4986743;28;20219;-73
2022/06/28 19:31:16;;;;;;;6.80;6.30;;;;;;;17.58;100.00;63820.06;5000971;28;20442;-74
2022/06/28 19:33:43;;;;;;;8.23;7.20;;;;;;;17.52;100.00;63811.22;5011941;28;20296;-74
2022/06/28 19:36:10;;;;;;;7.82;6.82;;;;;;;17.46;100.00;63807.53;5004956;28;20433;-73
2022/06/28 19:38:37;;;;;;;7.45;6.75;;;;;;;17.33;100.00;63794.53;5004175;28;20231;-75
2022/06/28 19:41:04;;;;;;;7.00;6.20;;;;;;;17.32;100.00;63794.00;5001748;28;20206;-74
2022/06/28 19:43:31;;;;;;;8.38;7.65;;;;;;;17.29;100.00;63787.78;4999989;28;20227;-73
2022/06/28 19:45:59;;;;;;;8.32;7.63;;;;;;;17.29;100.00;63782.66;4986789;28;20322;-73
2022/06/28 19:48:27;;;;;;;7.82;6.85;;;;;;;17.15;100.00;63776.28;5005646;28;20223;-74
2022/06/28 19:50:54;;;;;;;8.13;6.70;;;;;;;17.07;100.00;63762.31;5005704;28;20209;-74
2022/06/28 19:53:21;;;;;;;8.25;7.60;;;;;;;16.98;100.00;63755.53;5005321;28;20284;-74
2022/06/28 19:55:48;;;;;;;7.80;7.00;;;;;;;16.92;100.00;63749.78;4997521;28;20243;-74
2022/06/28 19:58:15;;;;;;;7.57;6.97;;;;;;;16.87;100.00;63739.44;5003991;28;20407;-75
2022/06/28 20:00:42;;;;;;;8.10;7.47;;;;;;;16.86;100.00;63743.53;5005086;28;20499;-74
2022/06/28 20:03:09;;;;;;;8.80;7.90;;;;;;;16.76;100.00;63730.56;5004112;28;20269;-74
2022/06/28 20:05:37;;;;;;;9.00;8.13;;;;;;;16.50;100.00;63705.56;5003467;28;20253;-75
2022/06/28 20:08:08;;;;;;;10.90;8.95;;;;;;;16.82;100.00;63744.00;5004228;28;20227;-75
2022/06/28 20:10:36;;;;;;;11.95;7.80;;;;;;;16.87;100.00;63744.59;5003463;28;20226;-76
2022/06/28 20:13:03;;;;;;;8.35;7.70;;;;;;;16.82;100.00;63738.88;4994469;28;20258;-73
2022/06/28 20:15:31;;;;;;;8.95;8.18;;;;;;;16.78;100.00;63732.13;5002444;28;20277;-76
2022/06/28 20:17:58;;;;;;;10.05;9.05;;;;;;;16.78;100.00;63734.69;5005622;28;20226;-76
2022/06/28 20:20:25;;;;;;;9.77;8.88;;;;;;;16.79;100.00;63738.81;5004128;28;20211;-73
2022/06/28 20:22:54;;;;;;;8.43;7.72;;;;;;;16.73;100.00;63727.44;5002235;28;20226;-74
2022/06/28 20:25:21;;;;;;;9.05;8.15;;;;;;;16.77;100.00;63731.63;5003122;28;20199;-73
2022/06/28 20:27:48;;;;;;;8.82;7.93;;;;;;;16.74;100.00;63733.13;5002423;28;20229;-74
2022/06/28 20:30:16;;;;;;;8.88;8.18;;;;;;;16.74;100.00;63733.63;5003628;28;20407;-74
2022/06/28 20:32:44;;;;;;;9.30;8.50;;;;;;;16.70;100.00;63728.94;5002107;28;20284;-74
2022/06/28 20:35:11;;;;;;;10.30;9.32;;;;;;;16.67;100.00;63721.19;5004019;28;20195;-75
2022/06/28 20:37:38;;;;;;;10.38;9.23;;;;;;;16.64;100.00;63725.78;5001205;28;20408;-74
2022/06/28 20:40:07;;;;;;;8.73;8.02;;;;;;;16.63;100.00;63719.63;5003717;28;20202;-73
2022/06/28 20:42:33;;;;;;;9.00;8.20;;;;;;;16.60;100.00;63719.06;5003500;28;20371;-73
2022/06/28 20:45:01;;;;;;;9.35;8.45;;;;;;;16.46;100.00;63701.38;5001793;28;20203;-74
2022/06/28 20:47:28;;;;;;;10.55;9.55;;;;;;;16.43;100.00;63696.22;5000502;28;20233;-73
2022/06/28 20:49:56;;;;;;;9.43;8.55;;;;;;;16.36;100.00;63691.50;5000602;28;20230;-74
2022/06/28 20:52:23;;;;;;;8.88;8.13;;;;;;;16.35;100.00;63682.75;4992055;28;20239;-74
2022/06/28 20:54:49;;;;;;;8.40;7.57;;;;;;;16.36;100.00;63688.41;4984376;28;20199;-74
2022/06/28 20:57:18;;;;;;;8.90;8.13;;;;;;;16.34;100.00;63686.88;5001817;28;20231;-73
2022/06/28 20:59:45;;;;;;;9.45;8.65;;;;;;;16.31;100.00;63685.78;4990810;28;20198;-73
2022/06/28 21:02:12;;;;;;;9.32;8.43;;;;;;;16.27;100.00;63679.59;4996044;28;20215;-74
2022/06/28 21:04:39;;;;;;;8.80;7.90;;;;;;;16.27;100.00;63684.19;5000782;28;20237;-74
2022/06/28 21:07:06;;;;;;;10.20;8.05;;;;;;;16.26;100.00;63680.56;5003423;28;20273;-76
2022/06/28 21:09:33;;;;;;;8.80;8.10;;;;;;;16.22;100.00;63674.38;5002601;28;20206;-74
2022/06/28 21:11:59;;;;;;;7.72;7.13;;;;;;;16.21;100.00;63675.91;5003203;28;20238;-74
2022/06/28 21:14:28;;;;;;;7.93;7.32;;;;;;;16.12;100.00;63667.06;5003886;28;20210;-74
2022/06/28 21:16:55;;;;;;;7.80;7.20;;;;;;;16.08;100.00;63665.47;4999757;28;20199;-74
2022/06/28 21:19:22;;;;;;;8.60;7.75;;;;;;;16.07;100.00;63661.88;4988606;28;20203;-74
2022/06/28 21:21:49;;;;;;;7.93;7.22;;;;;;;16.06;100.00;63660.81;5000233;28;20388;-75
2022/06/28 21:24:17;;;;;;;8.23;7.47;;;;;;;15.92;100.00;63643.69;5002965;28;20198;-74
2022/06/28 21:26:44;;;;;;;8.20;7.40;;;;;;;15.91;100.00;63642.66;4999983;28;20266;-74
2022/06/28 21:29:11;;;;;;;7.65;7.05;;;;;;;15.90;100.00;63646.75;5002406;28;20195;-74
2022/06/28 21:31:39;;;;;;;7.65;7.05;;;;;;;15.90;100.00;63641.09;4990980;28;20356;-74
2022/06/28 21:34:06;;;;;;;8.02;7.25;;;;;;;15.87;100.00;63640.53;4990379;28;20281;-74
2022/06/28 21:36:34;;;;;;;8.60;7.47;;;;;;;15.88;100.00;63644.13;5002670;28;20203;-73
2022/06/28 21:39:01;;;;;;;7.70;7.10;;;;;;;15.95;100.00;63648.84;5003321;28;20222;-74
2022/06/28 21:41:29;;;;;;;8.18;7.50;;;;;;;15.96;100.00;63652.47;5001956;28;20483;-73
2022/06/28 21:43:56;;;;;;;8.00;7.35;;;;;;;15.98;100.00;63649.41;5002290;28;20229;-73
2022/06/28 21:46:23;;;;;;;7.85;7.03;;;;;;;15.98;100.00;63657.09;5000989;28;20380;-74
2022/06/28 21:48:51;;;;;;;7.97;7.13;;;;;;;15.97;100.00;63651.47;4999562;28;20238;-75
2022/06/28 21:54:05;;;;;;;8.63;6.63;;;;;;;15.86;100.00;63642.59;4983469;28;20281;-73
2022/06/28 21:56:31;;;;;;;8.30;6.55;;;;;;;15.86;100.00;63636.91;4998126;28;20223;-73
2022/06/28 21:58:58;;;;;;;7.68;6.88;;;;;;;15.89;100.00;63642.63;4985531;28;20326;-73
2022/06/28 22:01:25;;;;;;;7.43;6.88;;;;;;;15.89;100.00;63642.63;5000232;28;20199;-74
2022/06/28 22:03:53;;;;;;;6.70;6.05;;;;;;;15.87;100.00;63635.94;5007157;28;20431;-74
2022/06/28 22:06:21;;;;;;;7.45;6.95;;;;;;;15.82;100.00;63632.78;5009435;28;20203;-75
2022/06/28 22:08:47;;;;;;;7.28;6.75;;;;;;;15.84;100.00;63637.94;5012025;28;20219;-74
2022/06/28 22:11:32;;;;;;;8.00;6.78;;;;;;;15.83;100.00;63634.34;5013018;28;20199;-74
2022/06/28 22:14:00;;;;;;;8.13;7.32;;;;;;;15.74;100.00;63624.97;5006047;28;20299;-73
2022/06/28 22:16:27;;;;;;;7.60;6.97;;;;;;;15.77;100.00;63630.66;5006481;28;20199;-74
2022/06/28 22:18:56;;;;;;;7.80;7.13;;;;;;;15.75;100.00;63626.03;5005726;28;20535;-74
2022/06/28 22:21:23;;;;;;;7.75;7.15;;;;;;;15.73;100.00;63629.06;5004448;28;20203;-74
2022/06/28 22:23:50;;;;;;;7.60;7.00;;;;;;;15.78;100.00;63639.41;5006605;28;20219;-74
2022/06/28 22:26:16;;;;;;;7.68;6.97;;;;;;;15.82;100.00;63630.22;5006099;28;20211;-74
2022/06/28 22:28:44;;;;;;;6.85;6.18;;;;;;;15.88;100.00;63641.56;5005150;28;20218;-75
2022/06/28 22:31:11;;;;;;;7.32;6.63;;;;;;;15.87;100.00;63648.78;5003633;28;20245;-75
2022/06/28 22:33:38;;;;;;;7.47;6.88;;;;;;;15.90;100.00;63649.31;5005689;28;20535;-75
2022/06/28 22:36:07;;;;;;;6.95;6.28;;;;;;;15.96;100.00;63649.91;4986578;28;20199;-74
2022/06/28 22:38:34;;;;;;;7.43;6.82;;;;;;;15.90;100.00;63646.22;4987063;28;20223;-75
2022/06/28 22:41:01;;;;;;;8.77;6.15;;;;;;;15.86;100.00;63640.00;5003359;28;20204;-75
2022/06/28 22:43:28;;;;;;;8.30;6.50;;;;;;;15.88;100.00;63639.53;5006230;28;20463;-75
2022/06/28 22:45:55;;;;;;;6.30;5.82;;;;;;;15.87;100.00;63635.94;5005783;28;20202;-75
2022/06/28 22:48:22;;;;;;;8.88;6.25;;;;;;;15.88;100.00;63642.09;5004510;28;20215;-74
2022/06/28 22:50:51;;;;;;;7.90;7.00;;;;;;;15.95;100.00;63646.81;5005673;28;20278;-74
2022/06/28 22:53:19;;;;;;;7.60;6.63;;;;;;;15.99;100.00;63655.59;5005364;28;20265;-75
2022/06/28 22:55:46;;;;;;;7.40;6.63;;;;;;;15.88;100.00;63647.25;5005874;28;20207;-75
2022/06/28 22:58:13;;;;;;;7.07;6.35;;;;;;;15.85;100.00;63636.41;5004396;28;20234;-74
2022/06/28 23:00:40;;;;;;;7.95;5.50;;;;;;;15.93;100.00;63644.19;5004744;28;20210;-75
2022/06/28 23:03:07;;;;;;;6.93;6.32;;;;;;;15.93;100.00;63646.78;5005120;28;20243;-74
2022/06/28 23:05:34;;;;;;;6.18;5.68;;;;;;;15.95;100.00;63646.81;5005748;28;20211;-75
2022/06/28 23:08:01;;;;;;;5.95;5.53;;;;;;;15.89;100.00;63645.69;5005463;28;20388;-75
2022/06/28 23:13:13;;;;;;;6.47;5.97;;;;;;;15.97;100.00;63648.38;5005727;28;20273;-74
2022/06/28 23:15:41;;;;;;;5.70;5.25;;;;;;;15.97;100.00;63654.03;5005565;28;20206;-74
2022/06/28 23:18:08;;;;;;;5.55;5.10;;;;;;;15.89;100.00;63645.19;5001756;28;20215;-75
2022/06/28 23:20:34;;;;;;;6.78;5.35;;;;;;;15.92;100.00;63648.31;5004288;28;20218;-74
2022/06/28 23:23:01;;;;;;;5.65;5.25;;;;;;;15.93;100.00;63649.34;5004947;28;20242;-74
2022/06/28 23:25:30;;;;;;;6.22;5.68;;;;;;;15.85;100.00;63636.41;5004463;28;20542;-74
2022/06/28 23:27:57;;;;;;;5.35;5.05;;;;;;;15.85;100.00;63641.03;5004170;28;20565;-75
2022/06/28 23:30:24;;;;;;;5.70;5.03;;;;;;;15.83;100.00;63636.91;4992030;28;20200;-75
2022/06/28 23:32:50;;;;;;;5.03;4.72;;;;;;;15.87;100.00;63637.97;5003550;28;20406;-75
2022/06/28 23:35:17;;;;;;;5.38;4.95;;;;;;;15.83;100.00;63636.38;5004552;28;20207;-74
2022/06/28 23:37:44;;;;;;;5.63;5.15;;;;;;;15.73;100.00;63623.41;5000985;28;20220;-74
2022/06/28 23:40:12;;;;;;;5.88;5.47;;;;;;;15.71;100.00;63623.91;4985756;28;20196;-75
2022/06/28 23:42:40;;;;;;;5.35;5.05;;;;;;;15.70;100.00;63620.81;4988283;28;20224;-74
2022/06/28 23:45:08;;;;;;;5.50;5.00;;;;;;;15.73;100.00;63625.97;5004462;28;20199;-75
2022/06/28 23:47:35;;;;;;;5.85;5.35;;;;;;;15.76;100.00;63629.09;4994996;28;20267;-75
2022/06/28 23:50:02;;;;;;;5.22;4.65;;;;;;;15.73;100.00;63626.50;5005431;28;20262;-74
2022/06/28 23:52:29;;;;;;;6.07;5.35;;;;;;;15.79;100.00;63629.66;5003834;28;20223;-76
2022/06/28 23:55:15;;;;;;;9.05;6.00;;;;;;;15.83;100.00;63638.94;5005306;28;20199;-75
2022/06/28 23:57:45;;;;;;;6.28;5.78;;;;;;;15.93;100.00;63644.19;5004365;28;20454;-76
